sensor_id;sensor_type;location;lat;lon;timestamp;P1;durP1;ratioP1;P2;durP2;ratioP2
76631;SDS011;65526;48.578;-4.520;2023-03-02T00:00:42;2.65;;;1.80;;
76631;SDS011;65526;48.578;-4.520;2023-03-02T00:03:12;4.20;;;1.95;;
76631;SDS011;65526;48.578;-4.520;2023-03-02T00:05:43;3.17;;;1.73;;
76631;SDS011;65526;48.578;-4.520;2023-03-02T00:08:12;2.70;;;1.50;;
76631;SDS011;65526;48.578;-4.520;2023-03-02T00:10:43;5.15;;;2.13;;
76631;SDS011;65526;48.578;-4.520;2023-03-02T00:13:10;4.53;;;2.58;;
76631;SDS011;65526;48.578;-4.520;2023-03-02T00:15:37;5.18;;;2.50;;
76631;SDS011;65526;48.578;-4.520;2023-03-02T00:18:04;5.57;;;2.30;;
76631;SDS011;65526;48.578;-4.520;2023-03-02T00:20:30;6.03;;;1.92;;
76631;SDS011;65526;48.578;-4.520;2023-03-02T00:22:57;4.90;;;2.50;;
76631;SDS011;65526;48.578;-4.520;2023-03-02T00:25:23;9.68;;;3.38;;
76631;SDS011;65526;48.578;-4.520;2023-03-02T00:27:49;5.93;;;2.67;;
76631;SDS011;65526;48.578;-4.520;2023-03-02T00:30:16;9.88;;;3.45;;
76631;SDS011;65526;48.578;-4.520;2023-03-02T00:32:42;6.53;;;3.00;;
76631;SDS011;65526;48.578;-4.520;2023-03-02T00:35:10;4.35;;;2.25;;
76631;SDS011;65526;48.578;-4.520;2023-03-02T00:37:37;5.25;;;2.00;;
76631;SDS011;65526;48.578;-4.520;2023-03-02T00:40:04;4.55;;;2.60;;
76631;SDS011;65526;48.578;-4.520;2023-03-02T00:42:35;4.20;;;2.90;;
76631;SDS011;65526;48.578;-4.520;2023-03-02T00:45:05;8.98;;;3.03;;
76631;SDS011;65526;48.578;-4.520;2023-03-02T00:47:33;4.90;;;2.95;;
76631;SDS011;65526;48.578;-4.520;2023-03-02T00:50:00;7.40;;;3.10;;
76631;SDS011;65526;48.578;-4.520;2023-03-02T00:52:28;8.85;;;3.42;;
76631;SDS011;65526;48.578;-4.520;2023-03-02T00:55:01;5.38;;;3.22;;
76631;SDS011;65526;48.578;-4.520;2023-03-02T00:57:28;6.55;;;3.33;;
76631;SDS011;65526;48.578;-4.520;2023-03-02T00:59:55;6.68;;;3.40;;
76631;SDS011;65526;48.578;-4.520;2023-03-02T01:02:30;6.07;;;3.40;;
76631;SDS011;65526;48.578;-4.520;2023-03-02T01:04:59;6.47;;;3.47;;
76631;SDS011;65526;48.578;-4.520;2023-03-02T01:07:25;7.28;;;3.30;;
76631;SDS011;65526;48.578;-4.520;2023-03-02T01:09:53;6.47;;;3.40;;
76631;SDS011;65526;48.578;-4.520;2023-03-02T01:12:19;10.15;;;3.28;;
76631;SDS011;65526;48.578;-4.520;2023-03-02T01:14:47;5.80;;;3.22;;
76631;SDS011;65526;48.578;-4.520;2023-03-02T01:17:15;7.43;;;3.17;;
76631;SDS011;65526;48.578;-4.520;2023-03-02T01:19:42;5.65;;;3.25;;
76631;SDS011;65526;48.578;-4.520;2023-03-02T01:22:09;4.68;;;3.33;;
76631;SDS011;65526;48.578;-4.520;2023-03-02T01:24:36;9.18;;;3.67;;
76631;SDS011;65526;48.578;-4.520;2023-03-02T01:27:02;10.23;;;3.78;;
76631;SDS011;65526;48.578;-4.520;2023-03-02T01:29:29;7.22;;;3.55;;
76631;SDS011;65526;48.578;-4.520;2023-03-02T01:31:55;4.75;;;2.72;;
76631;SDS011;65526;48.578;-4.520;2023-03-02T01:34:23;5.38;;;2.33;;
76631;SDS011;65526;48.578;-4.520;2023-03-02T01:36:49;5.30;;;3.15;;
76631;SDS011;65526;48.578;-4.520;2023-03-02T01:39:16;5.85;;;3.70;;
76631;SDS011;65526;48.578;-4.520;2023-03-02T01:41:43;6.97;;;3.40;;
76631;SDS011;65526;48.578;-4.520;2023-03-02T01:47:11;5.40;;;3.03;;
76631;SDS011;65526;48.578;-4.520;2023-03-02T01:52:45;6.38;;;3.17;;
76631;SDS011;65526;48.578;-4.520;2023-03-02T01:55:13;5.50;;;3.47;;
76631;SDS011;65526;48.578;-4.520;2023-03-02T01:57:42;7.13;;;3.47;;
76631;SDS011;65526;48.578;-4.520;2023-03-02T02:00:12;6.35;;;2.95;;
76631;SDS011;65526;48.578;-4.520;2023-03-02T02:02:45;6.80;;;3.35;;
76631;SDS011;65526;48.578;-4.520;2023-03-02T02:05:19;6.82;;;3.25;;
76631;SDS011;65526;48.578;-4.520;2023-03-02T02:07:49;5.82;;;3.40;;
76631;SDS011;65526;48.578;-4.520;2023-03-02T02:10:16;5.97;;;3.58;;
76631;SDS011;65526;48.578;-4.520;2023-03-02T02:12:43;7.82;;;3.53;;
76631;SDS011;65526;48.578;-4.520;2023-03-02T02:15:09;7.18;;;3.47;;
76631;SDS011;65526;48.578;-4.520;2023-03-02T02:17:36;8.88;;;4.18;;
76631;SDS011;65526;48.578;-4.520;2023-03-02T02:20:21;9.38;;;4.20;;
76631;SDS011;65526;48.578;-4.520;2023-03-02T02:28:28;8.68;;;3.70;;
76631;SDS011;65526;48.578;-4.520;2023-03-02T02:33:49;6.68;;;4.07;;
76631;SDS011;65526;48.578;-4.520;2023-03-02T02:36:21;6.97;;;4.10;;
76631;SDS011;65526;48.578;-4.520;2023-03-02T02:38:52;7.75;;;3.75;;
76631;SDS011;65526;48.578;-4.520;2023-03-02T02:41:23;11.93;;;4.32;;
76631;SDS011;65526;48.578;-4.520;2023-03-02T02:43:53;9.18;;;4.03;;
76631;SDS011;65526;48.578;-4.520;2023-03-02T02:46:21;7.53;;;3.67;;
76631;SDS011;65526;48.578;-4.520;2023-03-02T02:48:48;11.32;;;4.10;;
76631;SDS011;65526;48.578;-4.520;2023-03-02T02:51:25;10.32;;;3.53;;
76631;SDS011;65526;48.578;-4.520;2023-03-02T02:53:55;6.90;;;3.80;;
76631;SDS011;65526;48.578;-4.520;2023-03-02T02:56:26;11.27;;;4.50;;
76631;SDS011;65526;48.578;-4.520;2023-03-02T02:59:00;7.68;;;5.60;;
76631;SDS011;65526;48.578;-4.520;2023-03-02T03:01:31;9.45;;;4.45;;
76631;SDS011;65526;48.578;-4.520;2023-03-02T03:04:00;12.05;;;5.00;;
76631;SDS011;65526;48.578;-4.520;2023-03-02T03:06:31;7.38;;;4.40;;
76631;SDS011;65526;48.578;-4.520;2023-03-02T03:09:05;10.32;;;4.65;;
76631;SDS011;65526;48.578;-4.520;2023-03-02T03:11:42;6.53;;;4.05;;
76631;SDS011;65526;48.578;-4.520;2023-03-02T03:16:41;7.55;;;3.70;;
76631;SDS011;65526;48.578;-4.520;2023-03-02T03:19:14;6.18;;;4.18;;
76631;SDS011;65526;48.578;-4.520;2023-03-02T03:21:46;8.18;;;4.20;;
76631;SDS011;65526;48.578;-4.520;2023-03-02T03:24:15;7.88;;;3.97;;
76631;SDS011;65526;48.578;-4.520;2023-03-02T03:26:42;11.20;;;4.72;;
76631;SDS011;65526;48.578;-4.520;2023-03-02T03:29:10;10.85;;;5.68;;
76631;SDS011;65526;48.578;-4.520;2023-03-02T03:31:38;12.52;;;6.13;;
76631;SDS011;65526;48.578;-4.520;2023-03-02T03:34:05;12.35;;;5.93;;
76631;SDS011;65526;48.578;-4.520;2023-03-02T03:39:02;9.80;;;3.95;;
76631;SDS011;65526;48.578;-4.520;2023-03-02T03:41:31;7.22;;;3.60;;
76631;SDS011;65526;48.578;-4.520;2023-03-02T03:43:58;6.50;;;3.63;;
76631;SDS011;65526;48.578;-4.520;2023-03-02T03:46:26;8.55;;;3.80;;
76631;SDS011;65526;48.578;-4.520;2023-03-02T03:48:53;8.82;;;4.47;;
76631;SDS011;65526;48.578;-4.520;2023-03-02T03:51:19;11.95;;;5.57;;
76631;SDS011;65526;48.578;-4.520;2023-03-02T03:53:47;9.32;;;4.43;;
76631;SDS011;65526;48.578;-4.520;2023-03-02T03:56:26;14.85;;;5.80;;
76631;SDS011;65526;48.578;-4.520;2023-03-02T03:58:58;16.30;;;6.75;;
76631;SDS011;65526;48.578;-4.520;2023-03-02T04:01:40;19.15;;;7.70;;
76631;SDS011;65526;48.578;-4.520;2023-03-02T04:04:11;13.85;;;6.35;;
76631;SDS011;65526;48.578;-4.520;2023-03-02T04:06:43;24.05;;;8.82;;
76631;SDS011;65526;48.578;-4.520;2023-03-02T04:09:09;14.25;;;6.50;;
76631;SDS011;65526;48.578;-4.520;2023-03-02T04:11:38;18.98;;;7.38;;
76631;SDS011;65526;48.578;-4.520;2023-03-02T04:14:06;23.40;;;8.43;;
76631;SDS011;65526;48.578;-4.520;2023-03-02T04:16:34;19.88;;;7.22;;
76631;SDS011;65526;48.578;-4.520;2023-03-02T04:19:02;18.20;;;8.38;;
76631;SDS011;65526;48.578;-4.520;2023-03-02T04:21:36;16.33;;;7.85;;
76631;SDS011;65526;48.578;-4.520;2023-03-02T04:24:03;19.98;;;7.75;;
76631;SDS011;65526;48.578;-4.520;2023-03-02T04:26:30;16.33;;;7.15;;
76631;SDS011;65526;48.578;-4.520;2023-03-02T04:28:57;13.20;;;6.53;;
76631;SDS011;65526;48.578;-4.520;2023-03-02T04:31:24;14.35;;;5.95;;
76631;SDS011;65526;48.578;-4.520;2023-03-02T04:33:51;13.85;;;6.45;;
76631;SDS011;65526;48.578;-4.520;2023-03-02T04:36:18;18.27;;;7.18;;
76631;SDS011;65526;48.578;-4.520;2023-03-02T04:38:46;20.02;;;9.68;;
76631;SDS011;65526;48.578;-4.520;2023-03-02T04:41:13;13.23;;;6.47;;
76631;SDS011;65526;48.578;-4.520;2023-03-02T04:43:40;13.13;;;5.80;;
76631;SDS011;65526;48.578;-4.520;2023-03-02T04:46:08;12.13;;;6.70;;
76631;SDS011;65526;48.578;-4.520;2023-03-02T04:48:39;8.75;;;4.88;;
76631;SDS011;65526;48.578;-4.520;2023-03-02T04:51:05;12.45;;;5.60;;
76631;SDS011;65526;48.578;-4.520;2023-03-02T04:53:33;11.68;;;5.40;;
76631;SDS011;65526;48.578;-4.520;2023-03-02T04:55:59;9.35;;;5.40;;
76631;SDS011;65526;48.578;-4.520;2023-03-02T04:58:26;10.52;;;5.18;;
76631;SDS011;65526;48.578;-4.520;2023-03-02T05:00:52;7.70;;;5.28;;
76631;SDS011;65526;48.578;-4.520;2023-03-02T05:03:27;11.80;;;6.00;;
76631;SDS011;65526;48.578;-4.520;2023-03-02T05:05:53;9.77;;;5.15;;
76631;SDS011;65526;48.578;-4.520;2023-03-02T05:08:19;11.20;;;5.65;;
76631;SDS011;65526;48.578;-4.520;2023-03-02T05:10:46;11.25;;;5.68;;
76631;SDS011;65526;48.578;-4.520;2023-03-02T05:13:12;16.23;;;6.47;;
76631;SDS011;65526;48.578;-4.520;2023-03-02T05:15:39;9.98;;;5.10;;
76631;SDS011;65526;48.578;-4.520;2023-03-02T05:18:07;13.63;;;5.15;;
76631;SDS011;65526;48.578;-4.520;2023-03-02T05:20:35;10.52;;;4.97;;
76631;SDS011;65526;48.578;-4.520;2023-03-02T05:23:03;9.73;;;4.88;;
76631;SDS011;65526;48.578;-4.520;2023-03-02T05:25:32;11.15;;;5.35;;
76631;SDS011;65526;48.578;-4.520;2023-03-02T05:28:00;8.57;;;4.32;;
76631;SDS011;65526;48.578;-4.520;2023-03-02T05:30:27;10.60;;;5.00;;
76631;SDS011;65526;48.578;-4.520;2023-03-02T05:32:53;10.77;;;5.50;;
76631;SDS011;65526;48.578;-4.520;2023-03-02T05:35:20;10.77;;;5.50;;
76631;SDS011;65526;48.578;-4.520;2023-03-02T05:37:46;13.27;;;5.88;;
76631;SDS011;65526;48.578;-4.520;2023-03-02T05:40:15;13.82;;;5.25;;
76631;SDS011;65526;48.578;-4.520;2023-03-02T05:42:43;14.90;;;5.53;;
76631;SDS011;65526;48.578;-4.520;2023-03-02T05:45:18;8.13;;;4.57;;
76631;SDS011;65526;48.578;-4.520;2023-03-02T05:47:47;6.38;;;4.13;;
76631;SDS011;65526;48.578;-4.520;2023-03-02T05:50:14;12.60;;;4.85;;
76631;SDS011;65526;48.578;-4.520;2023-03-02T05:52:41;9.50;;;5.30;;
76631;SDS011;65526;48.578;-4.520;2023-03-02T05:55:07;10.93;;;5.22;;
76631;SDS011;65526;48.578;-4.520;2023-03-02T05:57:34;9.60;;;5.00;;
76631;SDS011;65526;48.578;-4.520;2023-03-02T06:00:01;9.73;;;4.05;;
76631;SDS011;65526;48.578;-4.520;2023-03-02T06:05:05;8.98;;;4.40;;
76631;SDS011;65526;48.578;-4.520;2023-03-02T06:07:37;11.27;;;5.05;;
76631;SDS011;65526;48.578;-4.520;2023-03-02T06:10:04;10.02;;;4.50;;
76631;SDS011;65526;48.578;-4.520;2023-03-02T06:12:32;12.40;;;4.90;;
76631;SDS011;65526;48.578;-4.520;2023-03-02T06:14:59;6.90;;;4.43;;
76631;SDS011;65526;48.578;-4.520;2023-03-02T06:17:25;10.15;;;4.40;;
76631;SDS011;65526;48.578;-4.520;2023-03-02T06:19:52;10.45;;;4.32;;
76631;SDS011;65526;48.578;-4.520;2023-03-02T06:22:18;8.43;;;4.25;;
76631;SDS011;65526;48.578;-4.520;2023-03-02T06:24:45;6.90;;;4.45;;
76631;SDS011;65526;48.578;-4.520;2023-03-02T06:27:11;7.45;;;4.90;;
76631;SDS011;65526;48.578;-4.520;2023-03-02T06:29:38;12.60;;;4.63;;
76631;SDS011;65526;48.578;-4.520;2023-03-02T06:32:05;14.77;;;4.95;;
76631;SDS011;65526;48.578;-4.520;2023-03-02T06:34:31;8.85;;;4.40;;
76631;SDS011;65526;48.578;-4.520;2023-03-02T06:36:58;5.00;;;4.05;;
76631;SDS011;65526;48.578;-4.520;2023-03-02T06:39:24;7.40;;;4.40;;
76631;SDS011;65526;48.578;-4.520;2023-03-02T06:41:51;5.93;;;4.65;;
76631;SDS011;65526;48.578;-4.520;2023-03-02T06:44:17;8.10;;;4.88;;
76631;SDS011;65526;48.578;-4.520;2023-03-02T06:46:44;8.48;;;4.53;;
76631;SDS011;65526;48.578;-4.520;2023-03-02T06:49:10;7.30;;;4.72;;
76631;SDS011;65526;48.578;-4.520;2023-03-02T06:51:37;6.20;;;3.97;;
76631;SDS011;65526;48.578;-4.520;2023-03-02T06:54:04;7.43;;;4.43;;
76631;SDS011;65526;48.578;-4.520;2023-03-02T06:59:42;5.82;;;3.95;;
76631;SDS011;65526;48.578;-4.520;2023-03-02T07:02:14;8.23;;;4.25;;
76631;SDS011;65526;48.578;-4.520;2023-03-02T07:04:41;7.53;;;4.60;;
76631;SDS011;65526;48.578;-4.520;2023-03-02T07:07:07;9.43;;;4.72;;
76631;SDS011;65526;48.578;-4.520;2023-03-02T07:09:34;6.78;;;4.88;;
76631;SDS011;65526;48.578;-4.520;2023-03-02T07:12:00;9.45;;;4.80;;
76631;SDS011;65526;48.578;-4.520;2023-03-02T07:14:26;10.82;;;5.35;;
76631;SDS011;65526;48.578;-4.520;2023-03-02T07:16:53;11.40;;;5.30;;
76631;SDS011;65526;48.578;-4.520;2023-03-02T07:22:45;7.63;;;4.95;;
76631;SDS011;65526;48.578;-4.520;2023-03-02T07:25:12;6.75;;;4.43;;
76631;SDS011;65526;48.578;-4.520;2023-03-02T07:27:39;8.07;;;5.43;;
76631;SDS011;65526;48.578;-4.520;2023-03-02T07:30:05;7.20;;;4.65;;
76631;SDS011;65526;48.578;-4.520;2023-03-02T07:33:09;8.23;;;4.53;;
76631;SDS011;65526;48.578;-4.520;2023-03-02T07:35:35;8.82;;;5.35;;
76631;SDS011;65526;48.578;-4.520;2023-03-02T07:38:02;12.00;;;5.30;;
76631;SDS011;65526;48.578;-4.520;2023-03-02T07:40:28;9.60;;;5.05;;
76631;SDS011;65526;48.578;-4.520;2023-03-02T07:42:54;10.05;;;6.30;;
76631;SDS011;65526;48.578;-4.520;2023-03-02T07:45:21;8.90;;;5.78;;
76631;SDS011;65526;48.578;-4.520;2023-03-02T07:47:49;10.65;;;6.70;;
76631;SDS011;65526;48.578;-4.520;2023-03-02T07:50:16;11.50;;;6.00;;
76631;SDS011;65526;48.578;-4.520;2023-03-02T07:52:43;12.73;;;6.88;;
76631;SDS011;65526;48.578;-4.520;2023-03-02T07:55:09;13.30;;;6.50;;
76631;SDS011;65526;48.578;-4.520;2023-03-02T07:57:35;10.90;;;7.28;;
76631;SDS011;65526;48.578;-4.520;2023-03-02T08:00:03;16.10;;;8.73;;
76631;SDS011;65526;48.578;-4.520;2023-03-02T08:02:38;15.35;;;8.85;;
76631;SDS011;65526;48.578;-4.520;2023-03-02T08:05:06;15.00;;;8.05;;
76631;SDS011;65526;48.578;-4.520;2023-03-02T08:07:32;17.23;;;9.13;;
76631;SDS011;65526;48.578;-4.520;2023-03-02T08:09:59;15.50;;;8.95;;
76631;SDS011;65526;48.578;-4.520;2023-03-02T08:12:26;17.23;;;10.77;;
76631;SDS011;65526;48.578;-4.520;2023-03-02T08:14:53;22.23;;;10.02;;
76631;SDS011;65526;48.578;-4.520;2023-03-02T08:17:19;16.70;;;9.68;;
76631;SDS011;65526;48.578;-4.520;2023-03-02T08:19:46;19.92;;;10.63;;
76631;SDS011;65526;48.578;-4.520;2023-03-02T08:22:13;14.55;;;9.43;;
76631;SDS011;65526;48.578;-4.520;2023-03-02T08:24:40;17.92;;;10.40;;
76631;SDS011;65526;48.578;-4.520;2023-03-02T08:27:08;26.40;;;11.48;;
76631;SDS011;65526;48.578;-4.520;2023-03-02T08:29:38;18.95;;;10.60;;
76631;SDS011;65526;48.578;-4.520;2023-03-02T08:32:05;19.63;;;10.77;;
76631;SDS011;65526;48.578;-4.520;2023-03-02T08:34:32;21.67;;;10.85;;
76631;SDS011;65526;48.578;-4.520;2023-03-02T08:36:58;17.77;;;10.32;;
76631;SDS011;65526;48.578;-4.520;2023-03-02T08:39:25;19.88;;;10.23;;
76631;SDS011;65526;48.578;-4.520;2023-03-02T08:41:55;19.23;;;10.52;;
76631;SDS011;65526;48.578;-4.520;2023-03-02T08:44:21;20.33;;;11.18;;
76631;SDS011;65526;48.578;-4.520;2023-03-02T08:46:48;21.17;;;9.95;;
76631;SDS011;65526;48.578;-4.520;2023-03-02T08:49:16;22.67;;;10.15;;
76631;SDS011;65526;48.578;-4.520;2023-03-02T08:51:43;19.75;;;10.40;;
76631;SDS011;65526;48.578;-4.520;2023-03-02T08:54:11;16.58;;;9.38;;
76631;SDS011;65526;48.578;-4.520;2023-03-02T08:56:38;24.05;;;9.23;;
76631;SDS011;65526;48.578;-4.520;2023-03-02T08:59:06;14.55;;;8.77;;
76631;SDS011;65526;48.578;-4.520;2023-03-02T09:01:36;17.23;;;8.55;;
76631;SDS011;65526;48.578;-4.520;2023-03-02T09:04:03;17.02;;;8.63;;
76631;SDS011;65526;48.578;-4.520;2023-03-02T09:06:32;15.75;;;7.85;;
76631;SDS011;65526;48.578;-4.520;2023-03-02T09:09:02;12.70;;;7.15;;
76631;SDS011;65526;48.578;-4.520;2023-03-02T09:11:29;14.88;;;5.90;;
76631;SDS011;65526;48.578;-4.520;2023-03-02T09:13:55;10.70;;;6.70;;
76631;SDS011;65526;48.578;-4.520;2023-03-02T09:16:22;12.07;;;6.00;;
76631;SDS011;65526;48.578;-4.520;2023-03-02T09:18:52;9.25;;;5.72;;
76631;SDS011;65526;48.578;-4.520;2023-03-02T09:21:19;11.88;;;5.07;;
76631;SDS011;65526;48.578;-4.520;2023-03-02T09:23:45;8.27;;;4.20;;
76631;SDS011;65526;48.578;-4.520;2023-03-02T09:26:12;7.97;;;4.68;;
76631;SDS011;65526;48.578;-4.520;2023-03-02T09:28:38;9.10;;;4.60;;
76631;SDS011;65526;48.578;-4.520;2023-03-02T09:31:06;11.00;;;4.70;;
76631;SDS011;65526;48.578;-4.520;2023-03-02T09:33:33;14.45;;;4.47;;
76631;SDS011;65526;48.578;-4.520;2023-03-02T09:36:03;13.77;;;5.13;;
76631;SDS011;65526;48.578;-4.520;2023-03-02T09:38:31;6.68;;;4.47;;
76631;SDS011;65526;48.578;-4.520;2023-03-02T09:43:38;9.45;;;4.22;;
76631;SDS011;65526;48.578;-4.520;2023-03-02T09:46:36;10.45;;;3.92;;
76631;SDS011;65526;48.578;-4.520;2023-03-02T09:54:42;9.13;;;4.22;;
76631;SDS011;65526;48.578;-4.520;2023-03-02T09:57:19;11.27;;;4.05;;
76631;SDS011;65526;48.578;-4.520;2023-03-02T10:00:34;13.25;;;4.50;;
76631;SDS011;65526;48.578;-4.520;2023-03-02T10:02:50;9.23;;;3.47;;
76631;SDS011;65526;48.578;-4.520;2023-03-02T10:05:33;8.25;;;3.53;;
76631;SDS011;65526;48.578;-4.520;2023-03-02T10:08:10;11.65;;;4.20;;
76631;SDS011;65526;48.578;-4.520;2023-03-02T10:11:00;9.75;;;4.43;;
76631;SDS011;65526;48.578;-4.520;2023-03-02T10:16:46;9.60;;;3.60;;
76631;SDS011;65526;48.578;-4.520;2023-03-02T10:19:20;6.65;;;3.00;;
76631;SDS011;65526;48.578;-4.520;2023-03-02T10:21:59;8.48;;;3.50;;
76631;SDS011;65526;48.578;-4.520;2023-03-02T10:24:37;6.32;;;3.22;;
76631;SDS011;65526;48.578;-4.520;2023-03-02T10:27:16;7.20;;;2.42;;
76631;SDS011;65526;48.578;-4.520;2023-03-02T10:32:40;4.70;;;3.15;;
76631;SDS011;65526;48.578;-4.520;2023-03-02T10:35:12;3.83;;;1.85;;
76631;SDS011;65526;48.578;-4.520;2023-03-02T10:37:42;5.90;;;2.03;;
76631;SDS011;65526;48.578;-4.520;2023-03-02T10:40:12;5.50;;;1.55;;
76631;SDS011;65526;48.578;-4.520;2023-03-02T10:42:47;2.10;;;1.33;;
76631;SDS011;65526;48.578;-4.520;2023-03-02T10:48:11;4.85;;;1.23;;
76631;SDS011;65526;48.578;-4.520;2023-03-02T10:50:41;2.03;;;1.10;;
76631;SDS011;65526;48.578;-4.520;2023-03-02T10:53:15;3.17;;;1.50;;
76631;SDS011;65526;48.578;-4.520;2023-03-02T10:55:44;1.65;;;0.68;;
76631;SDS011;65526;48.578;-4.520;2023-03-02T11:01:02;5.82;;;1.45;;
76631;SDS011;65526;48.578;-4.520;2023-03-02T11:03:30;4.55;;;1.00;;
76631;SDS011;65526;48.578;-4.520;2023-03-02T11:06:09;6.95;;;1.00;;
76631;SDS011;65526;48.578;-4.520;2023-03-02T11:08:43;2.85;;;0.90;;
76631;SDS011;65526;48.578;-4.520;2023-03-02T11:11:16;1.88;;;0.90;;
76631;SDS011;65526;48.578;-4.520;2023-03-02T11:13:49;2.28;;;1.35;;
76631;SDS011;65526;48.578;-4.520;2023-03-02T11:18:50;2.25;;;0.73;;
76631;SDS011;65526;48.578;-4.520;2023-03-02T11:21:29;3.70;;;1.17;;
76631;SDS011;65526;48.578;-4.520;2023-03-02T11:24:25;3.58;;;1.27;;
76631;SDS011;65526;48.578;-4.520;2023-03-02T11:27:13;4.32;;;1.17;;
76631;SDS011;65526;48.578;-4.520;2023-03-02T11:29:58;4.32;;;1.05;;
76631;SDS011;65526;48.578;-4.520;2023-03-02T11:35:30;2.40;;;1.02;;
76631;SDS011;65526;48.578;-4.520;2023-03-02T11:38:18;3.13;;;1.08;;
76631;SDS011;65526;48.578;-4.520;2023-03-02T11:40:48;4.63;;;1.02;;
76631;SDS011;65526;48.578;-4.520;2023-03-02T11:43:19;3.20;;;1.00;;
76631;SDS011;65526;48.578;-4.520;2023-03-02T11:45:50;4.15;;;0.90;;
76631;SDS011;65526;48.578;-4.520;2023-03-02T11:48:24;4.70;;;1.38;;
76631;SDS011;65526;48.578;-4.520;2023-03-02T11:51:15;3.38;;;1.13;;
76631;SDS011;65526;48.578;-4.520;2023-03-02T11:56:16;1.98;;;1.85;;
76631;SDS011;65526;48.578;-4.520;2023-03-02T11:58:42;3.08;;;1.27;;
76631;SDS011;65526;48.578;-4.520;2023-03-02T12:01:16;3.33;;;1.10;;
76631;SDS011;65526;48.578;-4.520;2023-03-02T12:03:48;2.13;;;1.00;;
76631;SDS011;65526;48.578;-4.520;2023-03-02T12:08:49;12.23;;;1.50;;
76631;SDS011;65526;48.578;-4.520;2023-03-02T12:13:57;3.70;;;1.40;;
76631;SDS011;65526;48.578;-4.520;2023-03-02T12:16:35;1.88;;;1.05;;
76631;SDS011;65526;48.578;-4.520;2023-03-02T12:19:11;2.35;;;1.17;;
76631;SDS011;65526;48.578;-4.520;2023-03-02T12:24:31;4.93;;;1.52;;
76631;SDS011;65526;48.578;-4.520;2023-03-02T12:29:26;3.20;;;1.00;;
76631;SDS011;65526;48.578;-4.520;2023-03-02T12:34:52;2.85;;;1.20;;
76631;SDS011;65526;48.578;-4.520;2023-03-02T12:37:23;2.97;;;1.05;;
76631;SDS011;65526;48.578;-4.520;2023-03-02T12:48:22;2.58;;;1.30;;
76631;SDS011;65526;48.578;-4.520;2023-03-02T12:51:11;2.95;;;1.80;;
76631;SDS011;65526;48.578;-4.520;2023-03-02T12:53:48;2.78;;;1.27;;
76631;SDS011;65526;48.578;-4.520;2023-03-02T12:56:26;5.28;;;1.33;;
76631;SDS011;65526;48.578;-4.520;2023-03-02T12:58:53;4.00;;;1.05;;
76631;SDS011;65526;48.578;-4.520;2023-03-02T13:01:21;8.45;;;1.15;;
76631;SDS011;65526;48.578;-4.520;2023-03-02T13:03:49;3.33;;;0.88;;
76631;SDS011;65526;48.578;-4.520;2023-03-02T13:06:17;2.53;;;0.95;;
76631;SDS011;65526;48.578;-4.520;2023-03-02T13:08:44;1.63;;;1.02;;
76631;SDS011;65526;48.578;-4.520;2023-03-02T13:11:13;3.60;;;1.25;;
76631;SDS011;65526;48.578;-4.520;2023-03-02T13:13:50;2.88;;;1.08;;
76631;SDS011;65526;48.578;-4.520;2023-03-02T13:16:18;3.33;;;0.95;;
76631;SDS011;65526;48.578;-4.520;2023-03-02T13:18:51;1.13;;;1.02;;
76631;SDS011;65526;48.578;-4.520;2023-03-02T13:21:42;2.85;;;1.10;;
76631;SDS011;65526;48.578;-4.520;2023-03-02T13:24:28;2.15;;;1.05;;
76631;SDS011;65526;48.578;-4.520;2023-03-02T13:27:05;4.20;;;1.20;;
76631;SDS011;65526;48.578;-4.520;2023-03-02T13:29:32;7.00;;;1.55;;
76631;SDS011;65526;48.578;-4.520;2023-03-02T13:32:21;1.73;;;1.10;;
76631;SDS011;65526;48.578;-4.520;2023-03-02T13:34:51;5.30;;;1.00;;
76631;SDS011;65526;48.578;-4.520;2023-03-02T13:37:41;3.75;;;0.90;;
76631;SDS011;65526;48.578;-4.520;2023-03-02T13:42:47;2.53;;;1.23;;
76631;SDS011;65526;48.578;-4.520;2023-03-02T13:45:20;2.58;;;1.10;;
76631;SDS011;65526;48.578;-4.520;2023-03-02T13:47:49;4.53;;;1.00;;
76631;SDS011;65526;48.578;-4.520;2023-03-02T13:50:17;4.35;;;0.85;;
76631;SDS011;65526;48.578;-4.520;2023-03-02T13:52:44;2.42;;;0.85;;
76631;SDS011;65526;48.578;-4.520;2023-03-02T13:55:14;2.90;;;1.10;;
76631;SDS011;65526;48.578;-4.520;2023-03-02T13:57:42;4.57;;;0.88;;
76631;SDS011;65526;48.578;-4.520;2023-03-02T14:00:14;2.47;;;1.25;;
76631;SDS011;65526;48.578;-4.520;2023-03-02T14:02:45;2.47;;;0.90;;
76631;SDS011;65526;48.578;-4.520;2023-03-02T14:05:17;2.65;;;0.95;;
76631;SDS011;65526;48.578;-4.520;2023-03-02T14:07:45;1.95;;;1.10;;
76631;SDS011;65526;48.578;-4.520;2023-03-02T14:10:16;9.85;;;1.70;;
76631;SDS011;65526;48.578;-4.520;2023-03-02T14:12:51;3.20;;;1.20;;
76631;SDS011;65526;48.578;-4.520;2023-03-02T14:15:22;5.38;;;1.70;;
76631;SDS011;65526;48.578;-4.520;2023-03-02T14:17:48;6.90;;;1.60;;
76631;SDS011;65526;48.578;-4.520;2023-03-02T14:20:16;7.00;;;1.30;;
76631;SDS011;65526;48.578;-4.520;2023-03-02T14:22:44;2.42;;;0.90;;
76631;SDS011;65526;48.578;-4.520;2023-03-02T14:25:11;2.67;;;1.27;;
76631;SDS011;65526;48.578;-4.520;2023-03-02T14:27:39;3.15;;;1.38;;
76631;SDS011;65526;48.578;-4.520;2023-03-02T14:30:10;4.13;;;1.17;;
76631;SDS011;65526;48.578;-4.520;2023-03-02T14:32:42;4.78;;;1.23;;
76631;SDS011;65526;48.578;-4.520;2023-03-02T14:35:09;1.25;;;1.13;;
76631;SDS011;65526;48.578;-4.520;2023-03-02T14:37:47;1.70;;;1.00;;
76631;SDS011;65526;48.578;-4.520;2023-03-02T14:40:22;5.22;;;1.77;;
76631;SDS011;65526;48.578;-4.520;2023-03-02T14:42:51;5.32;;;1.40;;
76631;SDS011;65526;48.578;-4.520;2023-03-02T14:45:21;3.38;;;1.65;;
76631;SDS011;65526;48.578;-4.520;2023-03-02T14:47:48;6.97;;;1.70;;
76631;SDS011;65526;48.578;-4.520;2023-03-02T14:50:15;4.10;;;2.55;;
76631;SDS011;65526;48.578;-4.520;2023-03-02T14:52:43;6.72;;;2.88;;
76631;SDS011;65526;48.578;-4.520;2023-03-02T14:55:19;5.78;;;3.60;;
76631;SDS011;65526;48.578;-4.520;2023-03-02T14:57:52;4.68;;;2.72;;
76631;SDS011;65526;48.578;-4.520;2023-03-02T15:00:23;6.38;;;2.90;;
76631;SDS011;65526;48.578;-4.520;2023-03-02T15:02:50;4.03;;;2.85;;
76631;SDS011;65526;48.578;-4.520;2023-03-02T15:05:20;4.82;;;2.88;;
76631;SDS011;65526;48.578;-4.520;2023-03-02T15:07:46;9.07;;;3.67;;
76631;SDS011;65526;48.578;-4.520;2023-03-02T15:10:15;5.78;;;3.33;;
76631;SDS011;65526;48.578;-4.520;2023-03-02T15:12:47;3.90;;;2.72;;
76631;SDS011;65526;48.578;-4.520;2023-03-02T15:15:13;4.40;;;3.45;;
76631;SDS011;65526;48.578;-4.520;2023-03-02T15:17:39;4.80;;;2.72;;
76631;SDS011;65526;48.578;-4.520;2023-03-02T15:20:06;6.47;;;3.70;;
76631;SDS011;65526;48.578;-4.520;2023-03-02T15:22:36;7.95;;;3.03;;
76631;SDS011;65526;48.578;-4.520;2023-03-02T15:25:03;6.28;;;3.40;;
76631;SDS011;65526;48.578;-4.520;2023-03-02T15:27:29;6.35;;;2.60;;
76631;SDS011;65526;48.578;-4.520;2023-03-02T15:29:56;5.32;;;3.65;;
76631;SDS011;65526;48.578;-4.520;2023-03-02T15:32:22;9.50;;;4.25;;
76631;SDS011;65526;48.578;-4.520;2023-03-02T15:34:48;10.52;;;3.60;;
76631;SDS011;65526;48.578;-4.520;2023-03-02T15:37:15;5.97;;;3.80;;
76631;SDS011;65526;48.578;-4.520;2023-03-02T15:39:41;4.40;;;3.45;;
76631;SDS011;65526;48.578;-4.520;2023-03-02T15:42:09;9.65;;;3.25;;
76631;SDS011;65526;48.578;-4.520;2023-03-02T15:44:35;6.55;;;3.30;;
76631;SDS011;65526;48.578;-4.520;2023-03-02T15:47:05;8.60;;;4.47;;
76631;SDS011;65526;48.578;-4.520;2023-03-02T15:49:31;7.53;;;3.50;;
76631;SDS011;65526;48.578;-4.520;2023-03-02T15:51:58;8.57;;;4.18;;
76631;SDS011;65526;48.578;-4.520;2023-03-02T15:54:24;8.60;;;4.82;;
76631;SDS011;65526;48.578;-4.520;2023-03-02T15:56:52;8.30;;;4.38;;
76631;SDS011;65526;48.578;-4.520;2023-03-02T15:59:19;8.98;;;5.05;;
76631;SDS011;65526;48.578;-4.520;2023-03-02T16:01:51;11.55;;;6.30;;
76631;SDS011;65526;48.578;-4.520;2023-03-02T16:04:17;13.57;;;6.78;;
76631;SDS011;65526;48.578;-4.520;2023-03-02T16:06:44;11.93;;;6.28;;